createdAt,value
2019-02-15T00:00:40.870Z,68.20
2019-02-15T00:03:07.760Z,68.00
2019-02-15T00:05:34.162Z,68.40
2019-02-15T00:08:00.403Z,68.80
2019-02-15T00:10:26.791Z,68.60
2019-02-15T00:12:53.028Z,68.60
2019-02-15T00:15:19.259Z,68.80
2019-02-15T00:17:50.422Z,69.00
2019-02-15T00:20:18.591Z,69.00
2019-02-15T00:22:44.808Z,69.30
2019-02-15T00:25:11.091Z,69.30
2019-02-15T00:27:37.357Z,69.80
2019-02-15T00:30:08.314Z,70.00
2019-02-15T00:32:34.801Z,69.30
2019-02-15T00:35:01.014Z,69.50
2019-02-15T00:37:27.359Z,69.70
2019-02-15T00:39:53.604Z,69.30
2019-02-15T00:42:19.872Z,69.20
2019-02-15T00:44:46.241Z,69.20
2019-02-15T00:47:14.534Z,69.50
2019-02-15T00:49:41.723Z,70.20
2019-02-15T00:52:09.940Z,70.80
2019-02-15T00:54:38.211Z,71.40
2019-02-15T00:57:18.326Z,71.40
2019-02-15T00:59:52.488Z,71.60
2019-02-15T01:02:20.627Z,71.50
2019-02-15T01:04:48.760Z,71.10
2019-02-15T01:07:22.621Z,70.90
2019-02-15T01:09:50.692Z,70.90
2019-02-15T01:12:18.839Z,70.90
2019-02-15T01:14:45.074Z,71.50
2019-02-15T01:17:11.416Z,72.00
2019-02-15T01:19:37.735Z,72.60
2019-02-15T01:22:04.021Z,73.40
2019-02-15T01:24:30.284Z,73.70
2019-02-15T01:26:58.824Z,74.20
2019-02-15T01:29:32.928Z,73.70
2019-02-15T01:32:01.090Z,73.40
2019-02-15T01:34:32.111Z,72.70
2019-02-15T01:37:00.266Z,72.80
2019-02-15T01:39:28.396Z,74.20
2019-02-15T01:41:56.537Z,75.00
2019-02-15T01:44:30.507Z,74.70
2019-02-15T01:46:58.987Z,74.30
2019-02-15T01:49:25.362Z,74.20
2019-02-15T01:51:51.600Z,74.20
2019-02-15T01:54:17.731Z,74.70
2019-02-15T01:56:44.015Z,75.50
2019-02-15T01:59:10.238Z,76.30
2019-02-15T02:01:36.520Z,76.60
2019-02-15T02:04:03.145Z,76.00
2019-02-15T02:06:29.390Z,75.20
2019-02-15T02:08:55.765Z,75.30
2019-02-15T02:11:22.017Z,75.10
2019-02-15T02:13:49.831Z,75.00
2019-02-15T02:16:16.429Z,75.10
2019-02-15T02:18:42.867Z,74.50
2019-02-15T02:21:09.120Z,74.30
2019-02-15T02:23:35.434Z,74.40
2019-02-15T02:26:01.912Z,75.10
2019-02-15T02:28:28.246Z,75.30
2019-02-15T02:30:54.477Z,75.30
2019-02-15T02:33:20.845Z,75.60
2019-02-15T02:35:47.207Z,75.40
2019-02-15T02:38:13.675Z,75.80
2019-02-15T02:40:40.004Z,75.50
2019-02-15T02:43:06.274Z,75.00
2019-02-15T02:45:32.667Z,76.10
2019-02-15T02:47:59.335Z,75.30
2019-02-15T02:50:25.721Z,75.30
2019-02-15T02:52:52.412Z,74.70
2019-02-15T02:55:18.666Z,74.70
2019-02-15T02:57:44.907Z,74.60
2019-02-15T03:00:11.726Z,75.00
2019-02-15T03:02:38.106Z,75.30
2019-02-15T03:05:04.639Z,76.60
2019-02-15T03:07:30.908Z,76.70
2019-02-15T03:09:57.319Z,76.90
2019-02-15T03:12:23.678Z,77.20
2019-02-15T03:14:50.118Z,77.70
2019-02-15T03:17:16.708Z,78.70
2019-02-15T03:19:43.069Z,78.60
2019-02-15T03:22:09.294Z,78.20
2019-02-15T03:24:35.651Z,78.80
2019-02-15T03:27:01.986Z,79.00
2019-02-15T03:29:28.245Z,78.20
2019-02-15T03:31:54.458Z,78.10
2019-02-15T03:34:20.749Z,77.90
2019-02-15T03:36:55.100Z,77.70
2019-02-15T03:39:23.484Z,77.20
2019-02-15T03:41:49.948Z,76.90
2019-02-15T03:44:22.242Z,77.20
2019-02-15T03:46:44.471Z,76.80
2019-02-15T03:49:10.994Z,77.30
2019-02-15T03:51:37.779Z,76.80
2019-02-15T03:54:04.155Z,77.60
2019-02-15T03:56:30.809Z,78.70
2019-02-15T03:58:59.096Z,79.20
2019-02-15T04:01:25.371Z,79.40
2019-02-15T04:03:51.605Z,80.20
2019-02-15T04:06:17.866Z,79.60
2019-02-15T04:08:44.174Z,80.00
2019-02-15T04:11:10.706Z,79.80
2019-02-15T04:13:36.927Z,79.20
2019-02-15T04:16:03.333Z,78.90
2019-02-15T04:18:29.556Z,80.80
2019-02-15T04:20:56.025Z,81.20
2019-02-15T04:23:22.379Z,81.70
2019-02-15T04:25:48.622Z,81.80
2019-02-15T04:28:14.857Z,81.40
2019-02-15T04:30:41.093Z,81.60
2019-02-15T04:33:07.336Z,81.30
2019-02-15T04:35:36.890Z,81.40
2019-02-15T04:38:03.199Z,81.30
2019-02-15T04:40:29.439Z,81.00
2019-02-15T04:42:55.916Z,80.40
2019-02-15T04:45:22.251Z,80.40
2019-02-15T04:47:48.473Z,80.70
2019-02-15T04:50:14.751Z,81.50
2019-02-15T04:52:41.038Z,81.90
2019-02-15T04:55:07.565Z,81.80
2019-02-15T04:57:33.941Z,81.20
2019-02-15T05:00:00.267Z,81.30
2019-02-15T05:02:26.457Z,81.20
2019-02-15T05:04:52.746Z,80.70
2019-02-15T05:07:19.204Z,80.70
2019-02-15T05:09:45.457Z,81.10
2019-02-15T05:12:11.693Z,80.60
2019-02-15T05:14:38.137Z,79.80
2019-02-15T05:17:04.361Z,79.70
2019-02-15T05:19:30.507Z,79.60
2019-02-15T05:21:56.923Z,79.30
2019-02-15T05:24:23.208Z,79.50
2019-02-15T05:26:49.462Z,79.00
2019-02-15T05:29:15.755Z,79.40
2019-02-15T05:31:41.977Z,79.60
2019-02-15T05:34:08.226Z,79.50
2019-02-15T05:36:34.467Z,80.00
2019-02-15T05:39:00.729Z,80.70
2019-02-15T05:41:27.093Z,81.00
2019-02-15T05:43:53.563Z,80.70
2019-02-15T05:46:19.916Z,81.10
2019-02-15T05:48:46.555Z,81.10
2019-02-15T05:51:12.756Z,80.80
2019-02-15T05:53:39.226Z,80.40
2019-02-15T05:56:05.452Z,80.40
2019-02-15T05:58:31.771Z,80.40
2019-02-15T06:00:58.080Z,81.00
2019-02-15T06:03:24.312Z,80.90
2019-02-15T06:05:50.573Z,80.50
2019-02-15T06:08:16.939Z,81.00
2019-02-15T06:10:43.175Z,82.00
2019-02-15T06:13:09.660Z,82.40
2019-02-15T06:15:35.895Z,82.50
2019-02-15T06:18:02.396Z,82.50
2019-02-15T06:20:28.635Z,82.80
2019-02-15T06:22:54.973Z,82.20
2019-02-15T06:25:21.625Z,81.60
2019-02-15T06:27:48.112Z,81.10
2019-02-15T06:30:14.752Z,80.70
2019-02-15T06:32:41.270Z,80.60
2019-02-15T06:35:08.626Z,80.60
2019-02-15T06:37:34.987Z,80.80
2019-02-15T06:40:01.452Z,80.80
2019-02-15T06:42:27.726Z,80.20
2019-02-15T06:44:54.286Z,80.40
2019-02-15T06:47:20.528Z,81.10
2019-02-15T06:49:46.781Z,81.00
2019-02-15T06:52:13.128Z,80.90
2019-02-15T06:54:39.367Z,80.80
2019-02-15T06:57:05.654Z,81.00
2019-02-15T06:59:36.720Z,81.20
2019-02-15T07:02:21.840Z,81.60
2019-02-15T07:04:59.014Z,82.40
2019-02-15T07:07:25.493Z,81.30
2019-02-15T07:09:52.247Z,80.90
2019-02-15T07:12:18.719Z,80.40
2019-02-15T07:14:45.083Z,81.40
2019-02-15T07:17:11.543Z,83.10
2019-02-15T07:19:37.781Z,82.80
2019-02-15T07:22:04.143Z,82.30
2019-02-15T07:24:30.520Z,82.80
2019-02-15T07:26:56.752Z,83.30
2019-02-15T07:29:22.973Z,84.60
2019-02-15T07:31:49.175Z,85.10
2019-02-15T07:34:15.423Z,85.20
2019-02-15T07:36:41.659Z,84.70
2019-02-15T07:39:07.898Z,84.50
2019-02-15T07:41:34.936Z,86.00
2019-02-15T07:44:01.502Z,87.30
2019-02-15T07:46:27.769Z,87.80
2019-02-15T07:48:53.997Z,88.00
2019-02-15T07:51:20.231Z,87.30
2019-02-15T07:53:46.520Z,87.20
2019-02-15T07:56:12.755Z,87.70
2019-02-15T07:58:39.033Z,88.50
2019-02-15T08:01:05.295Z,88.80
2019-02-15T08:03:31.517Z,89.90
2019-02-15T08:05:57.871Z,89.80
2019-02-15T08:08:24.152Z,90.00
2019-02-15T08:10:50.419Z,90.10
2019-02-15T08:13:17.119Z,90.70
2019-02-15T08:15:51.297Z,91.00
2019-02-15T08:18:11.729Z,91.40
2019-02-15T08:20:38.180Z,91.40
2019-02-15T08:23:04.422Z,91.70
2019-02-15T08:25:30.862Z,92.00
2019-02-15T08:27:57.097Z,91.70
2019-02-15T08:30:23.437Z,91.30
2019-02-15T08:32:49.788Z,91.30
2019-02-15T08:35:16.002Z,91.80
2019-02-15T08:37:42.283Z,92.10
2019-02-15T08:40:09.666Z,92.30
2019-02-15T08:42:36.086Z,92.30
2019-02-15T08:45:04.863Z,92.20
2019-02-15T08:47:31.274Z,91.70
2019-02-15T08:49:57.657Z,91.30
2019-02-15T08:52:23.908Z,91.80
2019-02-15T08:54:50.273Z,91.20
2019-02-15T08:57:16.550Z,91.00
2019-02-15T08:59:43.039Z,90.90
2019-02-15T09:02:11.227Z,90.60
2019-02-15T09:04:37.520Z,90.60
2019-02-15T09:07:03.866Z,90.60
2019-02-15T09:09:30.238Z,90.40
2019-02-15T09:11:56.516Z,90.00
2019-02-15T09:14:22.797Z,89.30
2019-02-15T09:16:49.132Z,89.40
2019-02-15T09:19:15.428Z,89.90
2019-02-15T09:21:41.668Z,88.70
2019-02-15T09:24:07.925Z,90.80
2019-02-15T09:26:34.190Z,91.50
2019-02-15T09:29:02.245Z,91.00
2019-02-15T09:31:28.639Z,91.70
2019-02-15T09:33:54.978Z,91.50
2019-02-15T09:36:21.218Z,90.70
2019-02-15T09:38:47.486Z,90.50
2019-02-15T09:41:13.972Z,88.00
2019-02-15T09:43:40.197Z,84.70
2019-02-15T09:46:06.568Z,81.30
2019-02-15T09:48:32.830Z,78.90
2019-02-15T09:50:58.984Z,77.50
2019-02-15T09:53:25.400Z,75.70
2019-02-15T09:55:51.622Z,75.10
2019-02-15T09:58:21.557Z,74.30
2019-02-15T10:00:47.761Z,71.90
2019-02-15T10:03:13.973Z,73.80
2019-02-15T10:05:40.256Z,72.60
2019-02-15T10:08:06.566Z,72.40
2019-02-15T10:10:32.885Z,67.80
2019-02-15T10:12:59.228Z,62.90
2019-02-15T10:15:25.636Z,54.50
2019-02-15T10:17:52.248Z,50.50
2019-02-15T10:20:18.666Z,47.60
2019-02-15T10:22:44.933Z,46.60
2019-02-15T10:25:11.466Z,44.80
2019-02-15T10:27:37.980Z,45.20
2019-02-15T10:30:08.076Z,44.60
2019-02-15T10:32:34.334Z,42.30
2019-02-15T10:35:00.596Z,43.00
2019-02-15T10:37:27.142Z,42.70
2019-02-15T10:39:53.398Z,42.40
2019-02-15T10:42:19.787Z,41.80
2019-02-15T10:44:46.124Z,41.40
2019-02-15T10:47:15.758Z,41.20
2019-02-15T10:49:40.528Z,39.60
2019-02-15T10:52:07.373Z,38.80
2019-02-15T10:54:33.616Z,39.10
2019-02-15T10:56:59.878Z,39.90
2019-02-15T10:59:26.150Z,38.60
2019-02-15T11:01:52.605Z,39.50
2019-02-15T11:04:18.851Z,39.30
2019-02-15T11:06:45.212Z,38.30
2019-02-15T11:09:11.567Z,38.10
2019-02-15T11:11:37.867Z,38.00
2019-02-15T11:14:04.254Z,38.00
2019-02-15T11:16:30.584Z,38.60
2019-02-15T11:18:56.871Z,36.50
2019-02-15T11:21:23.105Z,36.70
2019-02-15T11:23:49.427Z,35.80
2019-02-15T11:26:24.360Z,36.30
2019-02-15T11:28:43.762Z,36.50
2019-02-15T11:31:09.930Z,36.40
2019-02-15T11:33:36.283Z,36.40
2019-02-15T11:36:03.017Z,36.30
2019-02-15T11:38:29.278Z,36.30
2019-02-15T11:40:55.638Z,36.50
2019-02-15T11:43:21.912Z,36.90
2019-02-15T11:45:48.130Z,36.70
2019-02-15T11:48:14.482Z,36.50
2019-02-15T11:50:40.721Z,36.80
2019-02-15T11:53:07.121Z,36.80
2019-02-15T11:55:33.522Z,36.40
2019-02-15T11:57:59.787Z,37.10
2019-02-15T12:00:28.238Z,36.90
2019-02-15T12:02:54.498Z,36.70
2019-02-15T12:05:20.736Z,37.20
2019-02-15T12:07:47.005Z,37.20
2019-02-15T12:10:13.328Z,36.30
2019-02-15T12:12:39.738Z,36.20
2019-02-15T12:15:07.816Z,36.60
2019-02-15T12:17:34.142Z,36.40
2019-02-15T12:20:00.369Z,36.60
2019-02-15T12:22:26.612Z,36.80
2019-02-15T12:24:53.015Z,37.20
2019-02-15T12:27:19.247Z,36.40
2019-02-15T12:29:45.543Z,36.80
2019-02-15T12:32:11.897Z,36.40
2019-02-15T12:34:38.244Z,37.60
2019-02-15T12:37:04.671Z,36.40
2019-02-15T12:39:30.827Z,36.10
2019-02-15T12:41:57.117Z,35.10
2019-02-15T12:44:23.365Z,34.90
2019-02-15T12:46:49.630Z,34.90
2019-02-15T12:49:15.853Z,35.00
2019-02-15T12:51:42.222Z,35.70
2019-02-15T12:54:08.445Z,33.60
2019-02-15T12:56:34.707Z,33.40
2019-02-15T12:59:01.253Z,34.30
2019-02-15T13:01:27.576Z,34.40
2019-02-15T13:03:54.164Z,32.80
2019-02-15T13:06:28.481Z,32.90
2019-02-15T13:08:48.484Z,33.00
2019-02-15T13:11:14.840Z,32.50
2019-02-15T13:13:41.303Z,31.70
2019-02-15T13:16:07.652Z,32.40
2019-02-15T13:18:33.909Z,33.70
2019-02-15T13:21:00.139Z,33.40
2019-02-15T13:23:26.395Z,32.70
2019-02-15T13:25:52.638Z,32.60
2019-02-15T13:28:18.886Z,32.00
2019-02-15T13:30:45.117Z,31.30
2019-02-15T13:33:11.359Z,31.80
2019-02-15T13:35:39.505Z,31.90
2019-02-15T13:38:05.804Z,31.80
2019-02-15T13:40:32.098Z,31.10
2019-02-15T13:42:58.465Z,30.90
2019-02-15T13:45:24.735Z,30.30
2019-02-15T13:47:51.016Z,30.70
2019-02-15T13:50:19.098Z,30.50
2019-02-15T13:52:45.661Z,30.70
2019-02-15T13:55:12.178Z,30.70
2019-02-15T13:57:38.522Z,30.70
2019-02-15T14:00:08.091Z,30.20
2019-02-15T14:02:34.514Z,30.50
2019-02-15T14:05:00.790Z,31.20
2019-02-15T14:07:27.062Z,31.50
2019-02-15T14:09:53.395Z,30.30
2019-02-15T14:12:19.652Z,30.40
2019-02-15T14:14:46.011Z,30.00
2019-02-15T14:17:12.512Z,30.60
2019-02-15T14:19:38.649Z,31.00
2019-02-15T14:22:04.951Z,31.10
2019-02-15T14:24:31.252Z,31.20
2019-02-15T14:26:57.472Z,30.60
2019-02-15T14:29:23.689Z,30.40
2019-02-15T14:31:49.904Z,30.60
2019-02-15T14:34:16.061Z,30.00
2019-02-15T14:36:42.395Z,30.00
2019-02-15T14:39:10.747Z,31.50
2019-02-15T14:41:37.163Z,30.50
2019-02-15T14:44:03.436Z,30.90
2019-02-15T14:46:29.678Z,30.30
2019-02-15T14:48:56.197Z,30.80
2019-02-15T14:51:22.438Z,30.60
2019-02-15T14:53:48.945Z,29.50
2019-02-15T14:56:15.300Z,30.10
2019-02-15T14:58:41.555Z,30.40
2019-02-15T15:01:08.024Z,29.90
2019-02-15T15:03:34.437Z,29.70
2019-02-15T15:06:00.559Z,29.50
2019-02-15T15:08:26.963Z,29.80
2019-02-15T15:10:53.208Z,29.60
2019-02-15T15:13:19.676Z,29.50
2019-02-15T15:15:46.112Z,29.80
2019-02-15T15:18:13.412Z,30.00
2019-02-15T15:20:39.799Z,29.60
2019-02-15T15:23:06.167Z,29.10
2019-02-15T15:25:32.555Z,29.40
2019-02-15T15:27:58.794Z,29.90
2019-02-15T15:30:25.160Z,30.60
2019-02-15T15:32:51.578Z,30.40
2019-02-15T15:35:17.825Z,30.20
2019-02-15T15:37:44.156Z,31.30
2019-02-15T15:40:12.348Z,31.80
2019-02-15T15:42:38.600Z,31.40
2019-02-15T15:45:07.151Z,31.60
2019-02-15T15:47:33.412Z,29.80
2019-02-15T15:49:59.632Z,29.60
2019-02-15T15:52:25.969Z,30.80
2019-02-15T15:54:52.247Z,31.10
2019-02-15T15:57:18.506Z,31.20
2019-02-15T15:59:44.847Z,31.90
2019-02-15T16:02:10.966Z,31.70
2019-02-15T16:04:37.422Z,31.70
2019-02-15T16:07:03.745Z,31.90
2019-02-15T16:09:29.988Z,32.60
2019-02-15T16:11:56.457Z,32.70
2019-02-15T16:14:22.766Z,32.60
2019-02-15T16:16:49.039Z,33.70
2019-02-15T16:19:15.244Z,34.90
2019-02-15T16:21:41.501Z,35.60
2019-02-15T16:24:12.718Z,36.40
2019-02-15T16:26:35.870Z,36.80
2019-02-15T16:29:02.221Z,37.70
2019-02-15T16:31:28.540Z,37.50
2019-02-15T16:33:54.983Z,38.70
2019-02-15T16:36:21.763Z,39.30
2019-02-15T16:38:48.035Z,39.70
2019-02-15T16:41:14.401Z,39.90
2019-02-15T16:43:40.738Z,40.60
2019-02-15T16:46:07.058Z,40.90
2019-02-15T16:48:41.927Z,41.10
2019-02-15T16:51:01.376Z,40.70
2019-02-15T16:53:27.720Z,40.40
2019-02-15T16:55:54.193Z,41.20
2019-02-15T16:58:20.582Z,41.20
2019-02-15T17:00:46.731Z,41.40
2019-02-15T17:03:13.128Z,41.80
2019-02-15T17:05:39.297Z,42.10
2019-02-15T17:08:05.822Z,42.10
2019-02-15T17:10:32.143Z,42.20
2019-02-15T17:12:58.785Z,42.50
2019-02-15T17:15:24.999Z,42.40
2019-02-15T17:17:51.272Z,42.60
2019-02-15T17:20:17.524Z,42.80
2019-02-15T17:22:43.787Z,42.80
2019-02-15T17:25:10.725Z,42.40
2019-02-15T17:27:37.166Z,42.50
2019-02-15T17:30:07.238Z,42.90
2019-02-15T17:32:33.447Z,42.50
2019-02-15T17:34:59.812Z,42.50
2019-02-15T17:37:25.958Z,42.50
2019-02-15T17:39:52.141Z,42.50
2019-02-15T17:42:18.383Z,42.70
2019-02-15T17:44:44.704Z,42.70
2019-02-15T17:47:11.022Z,42.70
2019-02-15T17:49:37.310Z,42.70
2019-02-15T17:52:03.487Z,42.90
2019-02-15T17:54:29.810Z,43.10
2019-02-15T17:56:56.139Z,43.30
2019-02-15T17:59:22.441Z,43.80
2019-02-15T18:01:48.686Z,44.30
2019-02-15T18:04:14.833Z,44.80
2019-02-15T18:06:41.165Z,44.60
2019-02-15T18:09:07.408Z,44.90
2019-02-15T18:11:33.618Z,45.10
2019-02-15T18:13:59.899Z,45.00
2019-02-15T18:16:26.230Z,45.00
2019-02-15T18:18:52.479Z,44.80
2019-02-15T18:21:18.982Z,44.70
2019-02-15T18:23:45.240Z,44.80
2019-02-15T18:26:11.631Z,44.70
2019-02-15T18:28:37.928Z,44.70
2019-02-15T18:31:05.864Z,44.90
2019-02-15T18:33:32.158Z,45.00
2019-02-15T18:35:58.407Z,44.80
2019-02-15T18:38:24.556Z,44.90
2019-02-15T18:40:50.997Z,45.00
2019-02-15T18:43:17.201Z,44.90
2019-02-15T18:45:43.422Z,45.00
2019-02-15T18:48:09.561Z,45.10
2019-02-15T18:50:35.905Z,44.90
2019-02-15T18:53:02.159Z,45.30
2019-02-15T18:55:28.401Z,45.70
2019-02-15T18:57:54.660Z,45.20
2019-02-15T19:00:20.960Z,45.00
2019-02-15T19:02:48.422Z,44.90
2019-02-15T19:05:14.715Z,45.20
2019-02-15T19:07:41.204Z,45.50
2019-02-15T19:10:22.273Z,45.50
2019-02-15T19:12:48.651Z,45.60
2019-02-15T19:15:15.490Z,45.70
2019-02-15T19:17:41.899Z,45.90
2019-02-15T19:20:10.390Z,46.10
2019-02-15T19:22:36.614Z,46.00
2019-02-15T19:25:05.977Z,46.20
2019-02-15T19:27:32.265Z,46.30
2019-02-15T19:29:58.510Z,46.40
2019-02-15T19:32:25.065Z,46.50
2019-02-15T19:34:54.341Z,46.40
2019-02-15T19:37:22.205Z,46.70
2019-02-15T19:39:48.558Z,46.70
2019-02-15T19:42:15.090Z,47.10
2019-02-15T19:44:41.589Z,47.30
2019-02-15T19:47:07.951Z,47.40
2019-02-15T19:49:39.059Z,47.70
2019-02-15T19:52:06.019Z,47.60
2019-02-15T19:54:33.148Z,47.70
2019-02-15T19:57:03.952Z,47.80
2019-02-15T19:59:37.937Z,47.80
2019-02-15T20:02:04.280Z,48.10
2019-02-15T20:04:33.596Z,48.30
2019-02-15T20:07:00.224Z,48.40
2019-02-15T20:09:26.586Z,48.50
2019-02-15T20:11:52.799Z,49.10
2019-02-15T20:14:23.571Z,49.40
2019-02-15T20:16:54.934Z,49.20
2019-02-15T20:19:21.300Z,49.40
2019-02-15T20:21:47.515Z,49.60
2019-02-15T20:24:22.870Z,49.50
2019-02-15T20:26:49.118Z,49.40
2019-02-15T20:29:17.717Z,49.70
2019-02-15T20:31:44.084Z,49.70
2019-02-15T20:34:10.369Z,50.00
2019-02-15T20:36:36.678Z,49.90
2019-02-15T20:39:14.138Z,49.90
2019-02-15T20:41:37.925Z,50.00
2019-02-15T20:44:04.433Z,50.10
2019-02-15T20:46:30.746Z,50.20
2019-02-15T20:49:04.251Z,50.30
2019-02-15T20:51:25.152Z,50.60
2019-02-15T20:53:51.801Z,50.90
2019-02-15T20:56:18.130Z,51.10
2019-02-15T20:58:46.309Z,51.30
2019-02-15T21:01:12.672Z,51.60
2019-02-15T21:03:38.895Z,51.50
2019-02-15T21:06:10.231Z,51.80
2019-02-15T21:08:36.762Z,52.10
2019-02-15T21:11:03.366Z,52.00
2019-02-15T21:13:29.690Z,52.20
2019-02-15T21:15:56.075Z,52.40
2019-02-15T21:18:22.398Z,52.30
2019-02-15T21:20:48.713Z,52.40
2019-02-15T21:23:18.918Z,52.50
2019-02-15T21:25:48.636Z,52.70
2019-02-15T21:28:20.631Z,53.00
2019-02-15T21:30:48.083Z,53.40
2019-02-15T21:33:20.185Z,53.50
2019-02-15T21:35:47.059Z,53.60
2019-02-15T21:38:13.303Z,53.70
2019-02-15T21:40:39.559Z,53.70
2019-02-15T21:43:13.815Z,53.70
2019-02-15T21:45:40.877Z,53.80
2019-02-15T21:48:14.867Z,54.10
2019-02-15T21:50:46.005Z,54.30
2019-02-15T21:53:19.217Z,54.50
2019-02-15T21:55:45.941Z,54.60
2019-02-15T21:58:13.272Z,54.90
2019-02-15T22:00:39.722Z,55.60
2019-02-15T22:03:07.108Z,55.10
2019-02-15T22:05:33.334Z,55.40
2019-02-15T22:08:02.293Z,55.30
2019-02-15T22:10:33.998Z,55.20
2019-02-15T22:13:04.940Z,55.40
2019-02-15T22:15:31.906Z,55.70
2019-02-15T22:17:58.144Z,56.20
2019-02-15T22:20:27.008Z,56.50
2019-02-15T22:22:52.749Z,57.20
2019-02-15T22:25:23.675Z,57.70
2019-02-15T22:27:52.856Z,58.00
2019-02-15T22:30:19.516Z,58.00
2019-02-15T22:32:45.848Z,57.90
2019-02-15T22:35:12.289Z,57.70
2019-02-15T22:37:38.657Z,58.00
2019-02-15T22:40:25.377Z,58.30
2019-02-15T22:42:51.668Z,58.30
2019-02-15T22:45:17.891Z,58.70
2019-02-15T22:47:44.053Z,58.80
2019-02-15T22:50:10.319Z,58.90
2019-02-15T22:52:36.562Z,59.10
2019-02-15T22:55:03.567Z,58.90
2019-02-15T22:57:29.851Z,58.80
2019-02-15T22:59:55.978Z,58.50
2019-02-15T23:02:22.587Z,58.40
2019-02-15T23:04:48.898Z,58.50
2019-02-15T23:07:15.091Z,59.50
2019-02-15T23:09:41.247Z,59.20
2019-02-15T23:12:07.675Z,59.40
2019-02-15T23:14:33.815Z,59.80
2019-02-15T23:17:00.090Z,60.00
2019-02-15T23:19:26.470Z,59.90
2019-02-15T23:21:52.724Z,59.70
2019-02-15T23:24:18.983Z,60.40
2019-02-15T23:26:45.241Z,60.80
2019-02-15T23:29:11.490Z,61.60
2019-02-15T23:31:37.768Z,62.00
2019-02-15T23:34:04.005Z,62.10
2019-02-15T23:36:30.347Z,62.00
2019-02-15T23:38:56.691Z,61.80
2019-02-15T23:41:22.937Z,61.90
2019-02-15T23:43:49.331Z,61.80
2019-02-15T23:46:15.740Z,62.00
2019-02-15T23:48:42.068Z,62.20
2019-02-15T23:51:08.315Z,62.40
2019-02-15T23:53:34.664Z,62.80
2019-02-15T23:56:01.189Z,63.20
2019-02-15T23:58:27.660Z,64.10
